createdAt,value
2023-05-12T00:01:58.177Z,9.20
2023-05-12T00:04:25.264Z,9.20
2023-05-12T00:06:53.674Z,9.20
2023-05-12T00:09:20.601Z,9.20
2023-05-12T00:11:48.549Z,9.20
2023-05-12T00:14:16.131Z,9.20
2023-05-12T00:16:43.479Z,9.20
2023-05-12T00:19:10.656Z,9.20
2023-05-12T00:21:37.750Z,9.10
2023-05-12T00:24:05.445Z,9.10
2023-05-12T00:26:32.430Z,9.10
2023-05-12T00:28:59.763Z,9.10
2023-05-12T00:31:26.914Z,9.10
2023-05-12T00:33:53.917Z,9.10
2023-05-12T00:36:20.844Z,9.10
2023-05-12T00:38:48.992Z,9.10
2023-05-12T00:41:16.735Z,9.10
2023-05-12T00:43:45.482Z,9.10
2023-05-12T00:46:12.860Z,9.00
2023-05-12T00:48:40.638Z,9.00
2023-05-12T00:51:08.661Z,9.10
2023-05-12T00:53:48.365Z,9.10
2023-05-12T00:56:18.812Z,9.00
2023-05-12T00:58:46.776Z,9.00
2023-05-12T01:01:14.066Z,9.00
2023-05-12T01:03:41.430Z,8.90
2023-05-12T01:06:31.280Z,8.90
2023-05-12T01:08:59.222Z,8.90
2023-05-12T01:11:26.212Z,8.90
2023-05-12T01:13:53.196Z,8.90
2023-05-12T01:16:27.873Z,8.80
2023-05-12T01:18:56.449Z,8.80
2023-05-12T01:21:23.594Z,8.80
2023-05-12T01:23:58.352Z,8.80
2023-05-12T01:26:29.881Z,8.90
2023-05-12T01:28:57.441Z,8.90
2023-05-12T01:31:25.136Z,8.90
2023-05-12T01:33:52.167Z,8.90
2023-05-12T01:36:19.097Z,8.90
2023-05-12T01:38:46.139Z,8.90
2023-05-12T01:41:13.140Z,8.90
2023-05-12T01:43:40.193Z,8.90
2023-05-12T01:46:07.280Z,9.00
2023-05-12T01:48:34.313Z,9.00
2023-05-12T01:51:01.916Z,9.00
2023-05-12T01:53:28.929Z,9.00
2023-05-12T01:55:56.096Z,9.00
2023-05-12T01:58:22.990Z,8.90
2023-05-12T02:00:49.966Z,8.90
2023-05-12T02:03:17.018Z,8.90
2023-05-12T02:05:44.377Z,8.90
2023-05-12T02:08:11.402Z,8.90
2023-05-12T02:10:39.560Z,8.80
2023-05-12T02:13:06.528Z,8.90
2023-05-12T02:15:33.528Z,8.90
2023-05-12T02:18:00.571Z,8.90
2023-05-12T02:20:29.760Z,8.90
2023-05-12T02:22:57.498Z,8.90
2023-05-12T02:25:24.601Z,8.90
2023-05-12T02:27:51.965Z,8.90
2023-05-12T02:30:19.297Z,8.80
2023-05-12T02:32:46.549Z,8.90
2023-05-12T02:35:13.792Z,8.90
2023-05-12T02:37:40.707Z,8.80
2023-05-12T02:40:08.372Z,8.90
2023-05-12T02:42:36.405Z,8.90
2023-05-12T02:45:03.588Z,8.90
2023-05-12T02:47:33.441Z,8.90
2023-05-12T02:50:00.583Z,8.80
2023-05-12T02:52:27.969Z,8.80
2023-05-12T02:54:56.254Z,8.80
2023-05-12T02:57:24.375Z,8.90
2023-05-12T02:59:51.316Z,8.90
2023-05-12T03:02:18.306Z,8.80
2023-05-12T03:04:45.303Z,8.80
2023-05-12T03:07:12.257Z,8.80
2023-05-12T03:09:39.370Z,8.80
2023-05-12T03:12:07.240Z,8.80
2023-05-12T03:14:34.174Z,8.70
2023-05-12T03:17:01.206Z,8.70
2023-05-12T03:19:28.218Z,8.70
2023-05-12T03:21:55.997Z,8.70
2023-05-12T03:24:23.107Z,8.70
2023-05-12T03:26:51.221Z,8.60
2023-05-12T03:29:18.151Z,8.70
2023-05-12T03:31:45.609Z,8.60
2023-05-12T03:34:12.745Z,8.60
2023-05-12T03:36:41.460Z,8.50
2023-05-12T03:39:11.140Z,8.60
2023-05-12T03:41:39.004Z,8.60
2023-05-12T03:44:06.409Z,8.60
2023-05-12T03:46:33.543Z,8.70
2023-05-12T03:49:01.319Z,8.60
2023-05-12T03:51:28.397Z,8.60
2023-05-12T03:53:55.360Z,8.60
2023-05-12T03:56:23.029Z,8.70
2023-05-12T03:58:50.043Z,8.60
2023-05-12T04:01:17.672Z,8.60
2023-05-12T04:03:44.785Z,8.60
2023-05-12T04:06:12.324Z,8.60
2023-05-12T04:08:41.815Z,8.60
2023-05-12T04:11:10.552Z,8.50
2023-05-12T04:13:37.657Z,8.50
2023-05-12T04:16:05.713Z,8.50
2023-05-12T04:18:32.856Z,8.50
2023-05-12T04:21:01.470Z,8.60
2023-05-12T04:23:28.835Z,8.60
2023-05-12T04:25:56.552Z,8.70
2023-05-12T04:28:23.492Z,8.70
2023-05-12T04:30:50.591Z,8.70
2023-05-12T04:33:17.734Z,8.80
2023-05-12T04:35:46.839Z,8.90
2023-05-12T04:38:13.888Z,8.90
2023-05-12T04:40:41.132Z,8.90
2023-05-12T04:43:08.475Z,9.00
2023-05-12T04:45:35.491Z,9.00
2023-05-12T04:48:04.929Z,9.10
2023-05-12T04:50:31.966Z,9.10
2023-05-12T04:52:59.015Z,9.10
2023-05-12T04:55:26.052Z,9.20
2023-05-12T04:57:53.030Z,9.20
2023-05-12T05:00:20.236Z,9.20
2023-05-12T05:02:47.661Z,9.20
2023-05-12T05:05:15.028Z,9.30
2023-05-12T05:07:42.155Z,9.30
2023-05-12T05:10:09.531Z,9.30
2023-05-12T05:12:36.886Z,9.40
2023-05-12T05:15:04.853Z,9.40
2023-05-12T05:17:31.930Z,9.40
2023-05-12T05:19:59.929Z,9.50
2023-05-12T05:22:27.499Z,9.50
2023-05-12T05:24:54.785Z,9.60
2023-05-12T05:27:22.139Z,9.60
2023-05-12T05:29:49.623Z,9.60
2023-05-12T05:32:16.826Z,9.70
2023-05-12T05:34:43.829Z,9.70
2023-05-12T05:37:10.870Z,9.70
2023-05-12T05:39:38.402Z,9.80
2023-05-12T05:42:05.548Z,9.80
2023-05-12T05:44:32.583Z,9.80
2023-05-12T05:46:59.646Z,9.80
2023-05-12T05:49:26.715Z,9.80
2023-05-12T05:51:53.988Z,9.90
2023-05-12T05:54:23.603Z,10.00
2023-05-12T05:56:50.894Z,10.00
2023-05-12T05:59:17.943Z,10.10
2023-05-12T06:01:45.799Z,10.20
2023-05-12T06:04:14.126Z,10.30
2023-05-12T06:06:41.118Z,10.40
2023-05-12T06:09:10.702Z,10.40
2023-05-12T06:11:37.764Z,10.40
2023-05-12T06:14:04.792Z,10.40
2023-05-12T06:16:31.755Z,10.30
2023-05-12T06:18:58.803Z,10.30
2023-05-12T06:21:25.832Z,10.20
2023-05-12T06:23:52.889Z,10.20
2023-05-12T06:26:19.917Z,10.20
2023-05-12T06:28:46.868Z,10.30
2023-05-12T06:31:13.817Z,10.20
2023-05-12T06:33:40.857Z,10.20
2023-05-12T06:36:08.241Z,10.20
2023-05-12T06:38:35.573Z,10.10
2023-05-12T06:41:02.491Z,10.10
2023-05-12T06:43:29.752Z,10.10
2023-05-12T06:45:57.079Z,10.20
2023-05-12T06:48:24.411Z,10.30
2023-05-12T06:50:51.907Z,10.40
2023-05-12T06:53:18.907Z,10.40
2023-05-12T06:55:47.163Z,10.40
2023-05-12T06:58:14.412Z,10.20
2023-05-12T07:00:41.777Z,10.00
2023-05-12T07:03:11.258Z,10.00
2023-05-12T07:05:38.297Z,9.90
2023-05-12T07:08:06.026Z,9.90
2023-05-12T07:10:35.350Z,10.10
2023-05-12T07:13:02.377Z,10.10
2023-05-12T07:15:32.615Z,10.20
2023-05-12T07:18:00.116Z,10.30
2023-05-12T07:20:27.706Z,10.40
2023-05-12T07:22:55.242Z,10.60
2023-05-12T07:25:22.590Z,11.00
2023-05-12T07:27:51.008Z,11.20
2023-05-12T07:30:18.133Z,11.10
2023-05-12T07:32:45.289Z,11.10
2023-05-12T07:35:14.817Z,11.20
2023-05-12T07:37:41.734Z,11.00
2023-05-12T07:40:09.940Z,10.90
2023-05-12T07:42:37.023Z,10.70
2023-05-12T07:45:04.421Z,10.50
2023-05-12T07:47:31.416Z,10.40
2023-05-12T07:49:58.457Z,10.30
2023-05-12T07:52:25.494Z,10.40
2023-05-12T07:54:52.700Z,10.50
2023-05-12T07:57:20.196Z,10.70
2023-05-12T07:59:47.434Z,10.70
2023-05-12T08:02:14.497Z,10.90
2023-05-12T08:04:43.180Z,11.10
2023-05-12T08:07:11.385Z,11.10
2023-05-12T08:09:38.344Z,11.00
2023-05-12T08:12:05.714Z,10.90
2023-05-12T08:14:32.792Z,10.80
2023-05-12T08:16:59.852Z,10.70
2023-05-12T08:19:26.891Z,10.50
2023-05-12T08:21:53.960Z,10.50
2023-05-12T08:24:22.055Z,10.50
2023-05-12T08:26:49.225Z,10.80
2023-05-12T08:29:16.852Z,11.00
2023-05-12T08:31:43.972Z,11.30
2023-05-12T08:34:11.398Z,11.40
2023-05-12T08:36:39.835Z,11.50
2023-05-12T08:39:08.312Z,11.40
2023-05-12T08:42:10.859Z,11.30
2023-05-12T08:44:38.606Z,11.40
2023-05-12T08:47:07.087Z,11.60
2023-05-12T08:49:36.717Z,11.90
2023-05-12T08:52:04.369Z,11.90
2023-05-12T08:59:32.323Z,12.50
2023-05-12T09:01:59.483Z,12.80
2023-05-12T09:04:26.632Z,13.40
2023-05-12T09:06:55.777Z,13.90
2023-05-12T09:09:24.440Z,14.10
2023-05-12T09:11:56.512Z,14.10
2023-05-12T09:14:25.976Z,13.90
2023-05-12T09:16:59.694Z,13.70
2023-05-12T09:19:28.415Z,13.60
2023-05-12T09:21:56.165Z,13.40
2023-05-12T09:24:38.394Z,13.50
2023-05-12T09:27:06.146Z,13.70
2023-05-12T09:29:39.527Z,13.70
2023-05-12T09:32:12.598Z,13.50
2023-05-12T09:34:41.648Z,13.50
2023-05-12T09:37:09.014Z,13.50
2023-05-12T09:39:36.821Z,13.70
2023-05-12T09:42:04.250Z,14.10
2023-05-12T09:44:33.465Z,14.10
2023-05-12T09:47:08.144Z,13.80
2023-05-12T09:49:35.214Z,13.30
2023-05-12T09:52:05.322Z,12.90
2023-05-12T09:54:34.588Z,12.60
2023-05-12T09:57:04.114Z,12.70
2023-05-12T09:59:33.875Z,13.00
2023-05-12T10:02:03.125Z,13.20
2023-05-12T10:04:42.104Z,13.40
2023-05-12T10:07:13.228Z,13.20
2023-05-12T10:09:42.847Z,13.40
2023-05-12T10:12:10.630Z,13.10
2023-05-12T10:14:38.527Z,12.90
2023-05-12T10:17:07.287Z,12.90
2023-05-12T10:19:35.782Z,12.70
2023-05-12T10:22:04.530Z,12.40
2023-05-12T10:24:31.753Z,12.00
2023-05-12T10:26:59.957Z,11.70
2023-05-12T10:29:31.250Z,11.70
2023-05-12T10:32:01.472Z,11.60
2023-05-12T10:34:34.980Z,11.70
2023-05-12T10:37:08.847Z,11.80
2023-05-12T10:39:36.248Z,11.90
2023-05-12T10:42:09.795Z,11.90
2023-05-12T10:44:37.796Z,11.90
2023-05-12T10:47:16.338Z,12.00
2023-05-12T10:49:43.907Z,12.20
2023-05-12T10:52:19.758Z,12.30
2023-05-12T10:54:47.850Z,12.30
2023-05-12T10:57:21.490Z,12.40
2023-05-12T10:59:59.826Z,12.60
2023-05-12T11:02:34.713Z,12.80
2023-05-12T11:05:10.942Z,12.80
2023-05-12T11:07:39.626Z,12.60
2023-05-12T11:10:08.056Z,12.60
2023-05-12T11:12:36.388Z,12.50
2023-05-12T11:15:05.550Z,12.50
2023-05-12T11:17:33.146Z,12.50
2023-05-12T11:20:01.634Z,12.50
2023-05-12T11:22:28.995Z,12.50
2023-05-12T11:24:56.219Z,12.60
2023-05-12T11:27:24.253Z,12.80
2023-05-12T11:30:03.092Z,12.90
2023-05-12T11:32:30.583Z,13.00
2023-05-12T11:35:12.218Z,13.10
2023-05-12T11:37:41.056Z,12.90
2023-05-12T11:40:19.413Z,12.60
2023-05-12T11:42:53.169Z,12.20
2023-05-12T11:45:26.069Z,11.80
2023-05-12T11:47:54.285Z,11.40
2023-05-12T11:50:23.111Z,11.10
2023-05-12T11:52:51.262Z,11.00
2023-05-12T11:55:24.599Z,10.90
2023-05-12T11:58:00.334Z,10.90
2023-05-12T12:00:32.912Z,10.90
2023-05-12T12:03:11.631Z,10.90
2023-05-12T12:05:40.477Z,10.90
2023-05-12T12:08:14.277Z,11.00
2023-05-12T12:10:46.717Z,11.00
2023-05-12T12:13:19.970Z,11.10
2023-05-12T12:15:46.968Z,11.20
2023-05-12T12:18:13.980Z,11.30
2023-05-12T12:20:43.247Z,11.20
2023-05-12T12:23:10.281Z,11.30
2023-05-12T12:25:37.657Z,11.30
2023-05-12T12:28:05.252Z,11.30
2023-05-12T12:30:32.617Z,11.30
2023-05-12T12:32:59.745Z,11.30
2023-05-12T12:35:26.916Z,11.30
2023-05-12T12:37:53.970Z,11.30
2023-05-12T12:40:20.962Z,11.40
2023-05-12T12:42:48.060Z,11.40
2023-05-12T12:45:15.159Z,11.50
2023-05-12T12:47:42.690Z,11.60
2023-05-12T12:50:10.856Z,11.70
2023-05-12T12:52:39.034Z,11.80
2023-05-12T12:55:07.488Z,11.80
2023-05-12T12:57:35.012Z,11.90
2023-05-12T13:00:05.869Z,12.00
2023-05-12T13:02:34.684Z,12.10
2023-05-12T13:05:06.166Z,11.90
2023-05-12T13:07:33.623Z,11.60
2023-05-12T13:10:00.618Z,11.50
2023-05-12T13:12:29.420Z,11.20
2023-05-12T13:14:57.100Z,11.10
2023-05-12T13:17:25.195Z,10.80
2023-05-12T13:19:53.239Z,10.60
2023-05-12T13:22:20.643Z,10.60
2023-05-12T13:24:48.278Z,10.60
2023-05-12T13:27:15.436Z,10.50
2023-05-12T13:29:42.419Z,10.70
2023-05-12T13:32:09.515Z,10.80
2023-05-12T13:34:37.460Z,11.00
2023-05-12T13:37:04.539Z,11.10
2023-05-12T13:39:32.154Z,11.20
2023-05-12T13:41:59.957Z,11.30
2023-05-12T13:44:27.648Z,11.50
2023-05-12T13:46:54.748Z,11.50
2023-05-12T13:49:22.239Z,11.60
2023-05-12T13:51:49.268Z,11.80
2023-05-12T13:54:16.305Z,11.80
2023-05-12T13:56:43.514Z,11.90
2023-05-12T13:59:10.518Z,12.00
2023-05-12T14:01:37.698Z,12.20
2023-05-12T14:04:04.752Z,12.10
2023-05-12T14:06:32.768Z,12.10
2023-05-12T14:08:59.872Z,11.90
2023-05-12T14:11:27.433Z,11.90
2023-05-12T14:13:54.475Z,11.70
2023-05-12T14:16:21.524Z,11.70
2023-05-12T14:18:48.626Z,11.50
2023-05-12T14:21:16.794Z,11.40
2023-05-12T14:23:44.144Z,11.30
2023-05-12T14:26:11.303Z,11.30
2023-05-12T14:28:39.028Z,11.30
2023-05-12T14:31:06.230Z,11.30
2023-05-12T14:33:33.435Z,11.40
2023-05-12T14:36:07.319Z,11.50
2023-05-12T14:38:34.849Z,11.70
2023-05-12T14:41:02.226Z,11.70
2023-05-12T14:43:29.574Z,11.80
2023-05-12T14:45:56.666Z,11.90
2023-05-12T14:48:26.275Z,12.10
2023-05-12T14:50:54.036Z,12.20
2023-05-12T14:53:21.517Z,12.30
2023-05-12T14:55:52.207Z,12.40
2023-05-12T14:58:24.516Z,12.60
2023-05-12T15:00:52.025Z,12.60
2023-05-12T15:03:21.092Z,12.80
2023-05-12T15:06:04.875Z,13.00
2023-05-12T15:08:33.744Z,13.10
2023-05-12T15:11:00.764Z,13.00
2023-05-12T15:13:27.785Z,13.00
2023-05-12T15:15:56.614Z,12.70
2023-05-12T15:18:24.153Z,12.50
2023-05-12T15:20:51.669Z,12.50
2023-05-12T15:23:18.817Z,12.50
2023-05-12T15:25:45.859Z,12.50
2023-05-12T15:28:13.401Z,12.60
2023-05-12T15:30:40.681Z,12.40
2023-05-12T15:33:07.788Z,12.30
2023-05-12T15:35:34.927Z,12.10
2023-05-12T15:38:01.998Z,12.00
2023-05-12T15:40:31.029Z,11.70
2023-05-12T15:42:58.876Z,11.30
2023-05-12T15:45:27.614Z,11.10
2023-05-12T15:47:57.228Z,11.00
2023-05-12T15:50:24.747Z,11.00
2023-05-12T15:52:52.167Z,10.90
2023-05-12T15:55:19.639Z,10.90
2023-05-12T15:57:46.922Z,10.90
2023-05-12T16:00:14.798Z,10.90
2023-05-12T16:02:41.905Z,10.90
2023-05-12T16:05:10.197Z,11.00
2023-05-12T16:07:37.328Z,11.00
2023-05-12T16:10:04.973Z,11.00
2023-05-12T16:12:32.034Z,10.90
2023-05-12T16:14:59.684Z,10.80
2023-05-12T16:17:28.533Z,10.80
2023-05-12T16:19:57.062Z,10.70
2023-05-12T16:22:24.272Z,10.80
2023-05-12T16:24:51.378Z,10.70
2023-05-12T16:27:18.417Z,10.70
2023-05-12T16:29:46.028Z,10.60
2023-05-12T16:32:13.227Z,10.60
2023-05-12T16:34:40.664Z,10.60
2023-05-12T16:37:07.747Z,10.60
2023-05-12T16:39:36.055Z,10.50
2023-05-12T16:42:03.445Z,10.60
2023-05-12T16:44:30.621Z,10.60
2023-05-12T16:46:57.619Z,10.60
2023-05-12T16:49:25.082Z,10.50
2023-05-12T16:51:52.419Z,10.50
2023-05-12T16:54:19.406Z,10.60
2023-05-12T16:56:47.393Z,10.70
2023-05-12T16:59:14.983Z,10.70
2023-05-12T17:01:42.008Z,10.70
2023-05-12T17:04:11.928Z,10.80
2023-05-12T17:06:39.180Z,10.90
2023-05-12T17:09:06.196Z,10.90
2023-05-12T17:11:33.189Z,10.90
2023-05-12T17:14:01.700Z,10.90
2023-05-12T17:16:28.876Z,10.90
2023-05-12T17:21:28.319Z,10.80
2023-05-12T17:23:55.384Z,10.80
2023-05-12T17:26:22.662Z,10.80
2023-05-12T17:28:49.675Z,10.80
2023-05-12T17:31:16.669Z,10.70
2023-05-12T17:33:44.657Z,10.70
2023-05-12T17:36:13.373Z,10.80
2023-05-12T17:38:41.266Z,10.70
2023-05-12T17:41:09.482Z,10.60
2023-05-12T17:43:36.507Z,10.60
2023-05-12T17:46:04.930Z,10.60
2023-05-12T17:48:33.469Z,10.60
2023-05-12T17:51:01.496Z,10.60
2023-05-12T17:53:28.636Z,10.60
2023-05-12T17:55:55.621Z,10.50
2023-05-12T17:58:22.781Z,10.50
2023-05-12T18:00:51.558Z,10.40
2023-05-12T18:03:23.969Z,10.40
2023-05-12T18:05:54.355Z,10.40
2023-05-12T18:08:21.936Z,10.40
2023-05-12T18:10:49.480Z,10.30
2023-05-12T18:13:16.589Z,10.30
2023-05-12T18:15:43.954Z,10.30
2023-05-12T18:18:11.085Z,10.20
2023-05-12T18:20:38.570Z,10.10
2023-05-12T18:23:08.110Z,10.10
2023-05-12T18:25:36.452Z,10.00
2023-05-12T18:28:03.487Z,10.00
2023-05-12T18:30:30.558Z,10.00
2023-05-12T18:32:57.613Z,10.00
2023-05-12T18:35:28.129Z,10.00
2023-05-12T18:37:55.061Z,10.00
2023-05-12T18:40:22.097Z,10.00
2023-05-12T18:42:49.130Z,10.00
2023-05-12T18:45:16.919Z,9.90
2023-05-12T18:47:44.092Z,9.90
2023-05-12T18:50:11.653Z,9.80
2023-05-12T18:52:38.617Z,9.70
2023-05-12T18:55:06.107Z,9.70
2023-05-12T18:57:33.358Z,9.70
2023-05-12T19:00:01.169Z,9.70
2023-05-12T19:02:28.286Z,9.70
2023-05-12T19:04:56.052Z,9.60
2023-05-12T19:07:24.161Z,9.60
2023-05-12T19:09:51.283Z,9.50
2023-05-12T19:12:18.504Z,9.40
2023-05-12T19:14:45.599Z,9.40
2023-05-12T19:17:14.952Z,9.30
2023-05-12T19:19:42.050Z,9.30
2023-05-12T19:22:09.446Z,9.30
2023-05-12T19:24:38.080Z,9.30
2023-05-12T19:27:05.188Z,9.30
2023-05-12T19:29:33.229Z,9.30
2023-05-12T19:32:00.293Z,9.30
2023-05-12T19:34:29.670Z,9.30
2023-05-12T19:36:58.396Z,9.30
2023-05-12T19:39:25.388Z,9.30
2023-05-12T19:41:52.446Z,9.40
2023-05-12T19:44:20.098Z,9.40
2023-05-12T19:46:53.659Z,9.50
2023-05-12T19:49:20.765Z,9.40
2023-05-12T19:51:48.843Z,9.50
2023-05-12T19:54:16.484Z,9.50
2023-05-12T19:56:43.505Z,9.50
2023-05-12T19:59:10.580Z,9.50
2023-05-12T20:01:37.636Z,9.50
2023-05-12T20:04:04.808Z,9.50
2023-05-12T20:06:32.154Z,9.50
2023-05-12T20:08:59.152Z,9.50
2023-05-12T20:11:26.082Z,9.40
2023-05-12T20:13:53.159Z,9.40
2023-05-12T20:16:20.233Z,9.30
2023-05-12T20:18:47.274Z,9.20
2023-05-12T20:21:14.304Z,9.10
2023-05-12T20:23:41.797Z,9.00
2023-05-12T20:26:10.296Z,9.00
2023-05-12T20:28:37.369Z,8.90
2023-05-12T20:31:04.326Z,8.90
2023-05-12T20:33:32.447Z,8.80
2023-05-12T20:35:59.421Z,8.70
2023-05-12T20:38:26.899Z,8.60
2023-05-12T20:40:53.929Z,8.60
2023-05-12T20:43:21.501Z,8.60
2023-05-12T20:45:48.526Z,8.50
2023-05-12T20:48:15.590Z,8.60
2023-05-12T20:50:43.270Z,8.60
2023-05-12T20:53:10.252Z,8.70
2023-05-12T20:55:37.242Z,8.70
2023-05-12T20:58:04.304Z,8.80
2023-05-12T21:00:31.400Z,8.80
2023-05-12T21:02:59.184Z,8.90
2023-05-12T21:05:26.637Z,9.00
2023-05-12T21:07:53.775Z,9.00
2023-05-12T21:10:21.691Z,9.00
2023-05-12T21:12:49.074Z,9.10
2023-05-12T21:15:16.289Z,9.10
2023-05-12T21:17:43.720Z,9.20
2023-05-12T21:20:12.334Z,9.20
2023-05-12T21:22:40.860Z,9.20
2023-05-12T21:25:08.614Z,9.30
2023-05-12T21:27:40.928Z,9.30
2023-05-12T21:30:09.282Z,9.30
2023-05-12T21:32:36.833Z,9.30
2023-05-12T21:35:04.040Z,9.30
2023-05-12T21:37:31.105Z,9.30
2023-05-12T21:39:58.103Z,9.40
2023-05-12T21:42:25.141Z,9.30
2023-05-12T21:44:52.580Z,9.30
2023-05-12T21:47:19.656Z,9.30
2023-05-12T21:49:46.651Z,9.30
2023-05-12T21:52:13.817Z,9.30
2023-05-12T21:54:40.740Z,9.30
2023-05-12T21:57:10.206Z,9.30
2023-05-12T21:59:37.199Z,9.30
2023-05-12T22:02:04.817Z,9.30
2023-05-12T22:04:31.833Z,9.30
2023-05-12T22:06:59.036Z,9.30
2023-05-12T22:09:26.221Z,9.30
2023-05-12T22:11:53.498Z,9.20
2023-05-12T22:14:21.442Z,9.20
2023-05-12T22:16:48.504Z,9.20
2023-05-12T22:19:17.125Z,9.20
2023-05-12T22:21:44.670Z,9.20
2023-05-12T22:24:11.716Z,9.20
2023-05-12T22:26:39.075Z,9.20
2023-05-12T22:29:06.257Z,9.20
2023-05-12T22:31:33.301Z,9.20
2023-05-12T22:34:00.298Z,9.10
2023-05-12T22:36:27.286Z,9.10
2023-05-12T22:38:55.712Z,9.10
2023-05-12T22:41:22.711Z,9.10
2023-05-12T22:43:49.651Z,9.10
2023-05-12T22:46:16.705Z,9.10
2023-05-12T22:48:44.126Z,9.10
2023-05-12T22:51:11.200Z,9.20
2023-05-12T22:53:41.499Z,9.10
2023-05-12T22:56:08.765Z,9.10
2023-05-12T22:58:35.887Z,9.10
2023-05-12T23:01:02.974Z,9.10
2023-05-12T23:03:30.212Z,9.10
2023-05-12T23:05:57.409Z,9.00
2023-05-12T23:08:24.537Z,9.00
2023-05-12T23:10:51.471Z,9.00
2023-05-12T23:13:18.423Z,9.00
2023-05-12T23:15:45.356Z,9.00
2023-05-12T23:18:12.301Z,8.90
2023-05-12T23:20:39.251Z,8.90
2023-05-12T23:23:07.113Z,8.80
2023-05-12T23:25:35.262Z,8.80
2023-05-12T23:28:03.254Z,8.70
2023-05-12T23:30:32.190Z,8.70
2023-05-12T23:32:59.288Z,8.60
2023-05-12T23:35:28.841Z,8.50
2023-05-12T23:37:58.388Z,8.50
2023-05-12T23:40:26.414Z,8.50
2023-05-12T23:42:54.539Z,8.50
2023-05-12T23:45:22.615Z,8.50
2023-05-12T23:47:51.194Z,8.60
2023-05-12T23:50:18.646Z,8.60
2023-05-12T23:52:46.919Z,8.60
2023-05-12T23:55:13.885Z,8.60
2023-05-12T23:57:40.841Z,8.60
